Quick Links (Output Below):   Max & Min Temps   /   Climate Reports   /   Zone Forecasts
River Forecasts   /   Forestry Forecasts   /   Aviation Forecasts   /   Radars   /   Features

Terminal Aerodrome Forecast (El Dorado)

Pick a Site:
Arkadelphia | El Dorado | Fayetteville | Fort Smith | Harrison | Highfill | Hot Springs | Jonesboro
Little Rock | Monticello | Mountain Home | Pine Bluff | Texarkana
 Forecast 

KELD 181008Z 1810/1906 VRB05KT P6SM VCTS FEW035 BKN060CB OVC100
     FM181400 02005KT P6SM SCT040 BKN100
     FM181800 04007KT P6SM BKN040
     FM190100 00000KT P6SM FEW050=


 Latest METARs (Observations) 
How to Decode METARs
10Z KELD 180953Z AUTO 00000KT 10SM FEW044 BKN065 OVC100 13/10 A3019
         RMK AO2 SLP221 T01280100
         
09Z KELD 180853Z AUTO 33003KT 10SM BKN036 BKN045 OVC050 13/10 A3019
         RMK AO2 LTG DSNT W SLP220 T01280100 55003
         
08Z KELD 180753Z AUTO 00000KT 10SM BKN090 13/09 A3017 RMK AO2 SLP216
         T01280094
         
07Z KELD 180653Z AUTO 08004KT 10SM FEW041 12/10 A3018 RMK AO2 SLP218
         T01220100
         
06Z KELD 180553Z AUTO 00000KT 10SM BKN043 13/11 A3020 RMK AO2 SLP224
         T01280106 10183 20122 401940033 50000
         
05Z KELD 180453Z AUTO 00000KT 10SM OVC045 13/10 A3020 RMK AO2 SLP226
         T01330100
         
04Z KELD 180353Z AUTO 32003KT 10SM BKN043 OVC110 13/10 A3020 RMK AO2
         SLP225 T01280100
         
03Z KELD 180253Z AUTO 00000KT 10SM BKN044 12/10 A3020 RMK AO2 SLP225
         T01220100 51012
         
02Z KELD 180153Z AUTO 00000KT 10SM CLR 12/09 A3019 RMK AO2 SLP222
         T01220094
         
01Z KELD 180053Z AUTO 07004KT 10SM CLR 16/09 A3018 RMK AO2 SLP220
         T01610089
         
***** Today's Observations (Above) *****


Back to Main Page
http://www.srh.noaa.gov/lzk/qfcst.php

USA.gov is the U.S. government's official web portal to all federal, state and local government web resources and services.